createdAt,value
2023-03-11T00:01:07.856Z,7.07
2023-03-11T00:03:34.989Z,6.80
2023-03-11T00:06:03.103Z,7.22
2023-03-11T00:08:31.077Z,7.20
2023-03-11T00:11:00.777Z,7.80
2023-03-11T00:13:29.617Z,6.97
2023-03-11T00:15:58.132Z,7.57
2023-03-11T00:18:28.195Z,7.43
2023-03-11T00:20:56.690Z,7.47
2023-03-11T00:23:24.691Z,7.32
2023-03-11T00:25:52.484Z,7.28
2023-03-11T00:28:19.597Z,7.75
2023-03-11T00:30:47.415Z,7.85
2023-03-11T00:33:16.106Z,8.45
2023-03-11T00:35:44.288Z,7.72
2023-03-11T00:38:15.771Z,7.45
2023-03-11T00:40:43.830Z,8.27
2023-03-11T00:43:10.915Z,7.13
2023-03-11T00:45:38.022Z,7.68
2023-03-11T00:48:06.393Z,7.50
2023-03-11T00:50:36.690Z,7.28
2023-03-11T00:53:04.557Z,8.02
2023-03-11T00:55:33.951Z,8.25
2023-03-11T00:58:03.807Z,9.30
2023-03-11T01:00:31.894Z,8.48
2023-03-11T01:03:00.340Z,7.38
2023-03-11T01:05:30.720Z,7.13
2023-03-11T01:07:58.029Z,6.78
2023-03-11T01:10:25.387Z,7.07
2023-03-11T01:12:52.990Z,7.32
2023-03-11T01:15:35.058Z,7.03
2023-03-11T01:18:03.297Z,7.18
2023-03-11T01:20:31.489Z,6.55
2023-03-11T01:22:58.438Z,6.70
2023-03-11T01:25:25.507Z,6.13
2023-03-11T01:27:52.922Z,6.60
2023-03-11T01:30:25.219Z,6.82
2023-03-11T01:32:53.939Z,6.18
2023-03-11T01:35:23.671Z,6.57
2023-03-11T01:37:50.708Z,6.63
2023-03-11T01:40:19.677Z,5.75
2023-03-11T01:42:46.726Z,6.22
2023-03-11T01:45:39.992Z,6.30
2023-03-11T01:48:09.264Z,6.05
2023-03-11T01:50:45.328Z,6.00
2023-03-11T01:53:14.561Z,6.78
2023-03-11T01:55:42.407Z,7.65
2023-03-11T01:58:14.502Z,5.70
2023-03-11T02:00:43.499Z,6.55
2023-03-11T02:03:18.768Z,6.07
2023-03-11T02:05:46.717Z,6.25
2023-03-11T02:08:13.673Z,6.15
2023-03-11T02:10:42.691Z,5.97
2023-03-11T02:13:11.137Z,6.07
2023-03-11T02:15:40.011Z,6.35
2023-03-11T02:18:08.314Z,6.65
2023-03-11T02:20:47.096Z,6.00
2023-03-11T02:23:17.305Z,5.75
2023-03-11T02:26:22.149Z,6.72
2023-03-11T02:28:50.600Z,6.35
2023-03-11T02:31:18.145Z,6.00
2023-03-11T02:33:49.268Z,6.45
2023-03-11T02:36:36.932Z,5.72
2023-03-11T02:39:05.404Z,6.28
2023-03-11T02:41:35.272Z,8.60
2023-03-11T02:44:02.986Z,6.10
2023-03-11T02:46:29.990Z,6.97
2023-03-11T02:48:58.213Z,6.00
2023-03-11T02:51:25.187Z,5.93
2023-03-11T02:53:55.145Z,6.10
2023-03-11T02:56:22.272Z,5.93
2023-03-11T02:58:49.465Z,5.82
2023-03-11T03:01:16.609Z,6.07
2023-03-11T03:03:43.847Z,6.47
2023-03-11T03:06:10.934Z,5.88
2023-03-11T03:08:37.935Z,6.30
2023-03-11T03:11:05.220Z,5.97
2023-03-11T03:13:32.488Z,6.75
2023-03-11T03:16:00.270Z,6.55
2023-03-11T03:18:27.718Z,6.40
2023-03-11T03:20:55.091Z,7.25
2023-03-11T03:23:22.484Z,6.65
2023-03-11T03:25:49.683Z,6.57
2023-03-11T03:28:16.867Z,6.25
2023-03-11T03:30:43.996Z,6.10
2023-03-11T03:33:11.274Z,6.95
2023-03-11T03:35:43.499Z,5.95
2023-03-11T03:38:10.718Z,7.28
2023-03-11T03:40:38.118Z,7.07
2023-03-11T03:43:05.919Z,6.85
2023-03-11T03:45:33.057Z,6.13
2023-03-11T03:48:00.169Z,6.40
2023-03-11T03:50:28.441Z,5.72
2023-03-11T03:52:55.534Z,5.55
2023-03-11T03:55:22.628Z,5.70
2023-03-11T03:57:50.367Z,5.43
2023-03-11T04:00:18.220Z,5.68
2023-03-11T04:02:45.647Z,5.57
2023-03-11T04:05:13.037Z,5.25
2023-03-11T04:07:39.821Z,5.05
2023-03-11T04:10:07.759Z,5.55
2023-03-11T04:12:34.908Z,5.30
2023-03-11T04:15:07.701Z,5.13
2023-03-11T04:17:41.385Z,4.60
2023-03-11T04:20:10.392Z,5.10
2023-03-11T04:22:37.894Z,4.93
2023-03-11T04:25:07.324Z,4.40
2023-03-11T04:27:38.817Z,3.92
2023-03-11T04:30:06.685Z,5.45
2023-03-11T04:32:35.444Z,4.05
2023-03-11T04:35:08.950Z,4.53
2023-03-11T04:37:43.937Z,4.07
2023-03-11T04:40:11.747Z,3.95
2023-03-11T04:42:42.782Z,4.57
2023-03-11T04:45:18.020Z,4.60
2023-03-11T04:47:48.850Z,4.78
2023-03-11T04:50:17.155Z,3.78
2023-03-11T04:52:44.325Z,4.97
2023-03-11T04:55:13.900Z,4.75
2023-03-11T04:57:42.088Z,5.03
2023-03-11T05:00:14.733Z,4.78
2023-03-11T05:02:54.272Z,4.72
2023-03-11T05:05:27.237Z,5.07
2023-03-11T05:07:54.103Z,4.85
2023-03-11T05:10:22.744Z,5.82
2023-03-11T05:12:53.162Z,5.70
2023-03-11T05:15:22.700Z,6.15
2023-03-11T05:17:49.555Z,6.07
2023-03-11T05:20:16.653Z,6.00
2023-03-11T05:22:43.477Z,6.35
2023-03-11T05:25:10.259Z,5.68
2023-03-11T05:27:37.046Z,6.15
2023-03-11T05:30:04.332Z,5.57
2023-03-11T05:32:31.264Z,5.18
2023-03-11T05:34:58.273Z,5.43
2023-03-11T05:37:25.610Z,4.60
2023-03-11T05:39:53.123Z,5.22
2023-03-11T05:42:21.497Z,5.10
2023-03-11T05:44:48.653Z,5.20
2023-03-11T05:47:17.499Z,5.13
2023-03-11T05:49:44.415Z,4.57
2023-03-11T05:52:11.263Z,5.70
2023-03-11T05:54:38.162Z,4.60
2023-03-11T05:57:05.051Z,5.05
2023-03-11T05:59:32.657Z,4.05
2023-03-11T06:01:59.500Z,4.35
2023-03-11T06:04:28.917Z,4.30
2023-03-11T06:06:55.824Z,4.00
2023-03-11T06:09:22.811Z,4.00
2023-03-11T06:11:49.565Z,3.90
2023-03-11T06:14:16.762Z,3.80
2023-03-11T06:16:43.656Z,4.00
2023-03-11T06:19:10.529Z,5.00
2023-03-11T06:21:37.595Z,3.33
2023-03-11T06:24:05.156Z,3.25
2023-03-11T06:26:32.260Z,3.28
2023-03-11T06:28:59.174Z,3.58
2023-03-11T06:31:29.513Z,3.63
2023-03-11T06:34:00.007Z,3.42
2023-03-11T06:36:28.999Z,2.88
2023-03-11T06:38:55.945Z,3.20
2023-03-11T06:41:22.913Z,3.60
2023-03-11T06:43:52.473Z,3.28
2023-03-11T06:46:23.546Z,3.03
2023-03-11T06:48:53.633Z,2.88
2023-03-11T06:51:21.345Z,3.00
2023-03-11T06:53:53.341Z,3.05
2023-03-11T06:56:23.411Z,2.53
2023-03-11T06:58:50.460Z,2.90
2023-03-11T07:01:26.327Z,2.80
2023-03-11T07:03:53.515Z,2.83
2023-03-11T07:06:40.467Z,2.58
2023-03-11T07:09:29.866Z,2.40
2023-03-11T07:12:24.059Z,2.58
2023-03-11T07:15:03.229Z,3.45
2023-03-11T07:17:38.084Z,3.08
2023-03-11T07:20:16.540Z,3.58
2023-03-11T07:48:46.218Z,2.95
2023-03-11T07:51:25.681Z,3.00
2023-03-11T07:53:54.717Z,2.97
2023-03-11T07:56:24.069Z,2.70
2023-03-11T07:58:51.937Z,36.55
2023-03-11T08:01:21.596Z,7.80
2023-03-11T08:03:51.286Z,20.25
2023-03-11T08:06:22.106Z,14.65
2023-03-11T08:08:50.386Z,15.40
2023-03-11T08:11:18.268Z,4.97
2023-03-11T08:13:46.507Z,11.23
2023-03-11T08:16:16.411Z,3.90
2023-03-11T08:18:44.153Z,3.28
2023-03-11T08:21:17.276Z,3.05
2023-03-11T08:23:48.331Z,2.08
2023-03-11T08:26:22.098Z,2.50
2023-03-11T08:28:49.745Z,2.55
2023-03-11T08:31:19.736Z,2.30
2023-03-11T08:33:51.991Z,2.22
2023-03-11T08:36:20.040Z,2.35
2023-03-11T08:38:48.077Z,2.15
2023-03-11T08:41:15.877Z,2.13
2023-03-11T08:43:44.642Z,2.25
2023-03-11T08:46:20.848Z,2.10
2023-03-11T08:48:48.297Z,2.05
2023-03-11T08:51:16.698Z,1.92
2023-03-11T08:53:44.621Z,2.50
2023-03-11T08:56:12.113Z,2.33
2023-03-11T08:58:39.252Z,2.38
2023-03-11T09:01:07.658Z,2.08
2023-03-11T09:03:36.114Z,2.10
2023-03-11T09:06:06.285Z,1.95
2023-03-11T09:08:33.941Z,1.90
2023-03-11T09:11:01.624Z,2.30
2023-03-11T09:13:29.360Z,2.60
2023-03-11T09:15:56.805Z,2.65
2023-03-11T09:18:24.251Z,2.05
2023-03-11T09:20:51.707Z,2.22
2023-03-11T09:23:19.236Z,1.92
2023-03-11T09:25:46.384Z,1.70
2023-03-11T09:28:13.657Z,2.10
2023-03-11T09:30:40.858Z,2.28
2023-03-11T09:33:08.083Z,2.55
2023-03-11T09:35:35.217Z,2.17
2023-03-11T09:38:02.226Z,2.10
2023-03-11T09:40:50.599Z,2.58
2023-03-11T09:43:27.938Z,1.95
2023-03-11T09:46:18.083Z,2.47
2023-03-11T09:49:12.531Z,2.10
2023-03-11T09:52:05.243Z,2.30
2023-03-11T09:54:38.313Z,1.85
2023-03-11T09:57:09.768Z,3.13
2023-03-11T09:59:39.853Z,2.03
2023-03-11T10:02:07.588Z,2.45
2023-03-11T10:05:01.694Z,1.70
2023-03-11T10:07:38.042Z,2.03
2023-03-11T10:10:05.968Z,2.13
2023-03-11T10:13:03.978Z,3.15
2023-03-11T10:15:48.495Z,2.03
2023-03-11T10:18:34.266Z,1.83
2023-03-11T10:21:25.722Z,2.22
2023-03-11T10:24:10.424Z,1.98
2023-03-11T10:26:49.209Z,1.65
2023-03-11T10:29:45.156Z,2.42
2023-03-11T10:32:16.367Z,2.17
2023-03-11T10:34:43.358Z,2.10
2023-03-11T10:37:28.999Z,2.13
2023-03-11T10:40:18.554Z,2.15
2023-03-11T10:42:47.037Z,3.30
2023-03-11T10:45:24.755Z,2.13
2023-03-11T10:51:11.591Z,2.15
2023-03-11T10:53:48.625Z,2.17
2023-03-11T10:56:33.008Z,2.20
2023-03-11T10:59:01.805Z,2.60
2023-03-11T11:01:30.333Z,2.25
2023-03-11T11:04:01.174Z,2.35
2023-03-11T11:06:31.596Z,2.60
2023-03-11T11:09:14.475Z,2.03
2023-03-11T11:11:41.602Z,2.20
2023-03-11T11:14:09.575Z,2.97
2023-03-11T11:16:37.603Z,2.10
2023-03-11T11:19:10.795Z,2.08
2023-03-11T11:21:48.915Z,2.30
2023-03-11T11:24:34.336Z,2.47
2023-03-11T11:29:32.278Z,2.42
2023-03-11T11:32:19.375Z,2.42
2023-03-11T11:34:57.089Z,2.00
2023-03-11T11:37:26.963Z,2.38
2023-03-11T11:39:58.543Z,2.45
2023-03-11T11:42:28.579Z,1.73
2023-03-11T11:45:23.118Z,2.60
2023-03-11T11:47:54.938Z,3.00
2023-03-11T11:50:37.722Z,2.28
2023-03-11T11:53:42.586Z,2.42
2023-03-11T11:56:09.928Z,2.72
2023-03-11T11:58:37.046Z,1.90
2023-03-11T12:01:08.459Z,2.22
2023-03-11T12:04:00.613Z,2.05
2023-03-11T12:06:46.253Z,1.80
2023-03-11T12:11:56.304Z,1.70
2023-03-11T12:14:38.760Z,4.28
2023-03-11T12:17:07.021Z,1.70
2023-03-11T12:19:36.754Z,1.95
2023-03-11T12:22:09.988Z,1.80
2023-03-11T12:24:40.052Z,2.53
2023-03-11T12:27:21.714Z,2.00
2023-03-11T12:29:56.395Z,2.00
2023-03-11T12:32:40.407Z,3.00
2023-03-11T12:35:30.246Z,2.15
2023-03-11T12:38:13.496Z,2.00
2023-03-11T12:40:44.674Z,1.65
2023-03-11T12:43:35.672Z,2.22
2023-03-11T12:46:07.227Z,2.90
2023-03-11T12:48:49.876Z,2.15
2023-03-11T12:51:35.090Z,2.10
2023-03-11T12:54:20.971Z,3.33
2023-03-11T12:57:01.749Z,2.88
2023-03-11T12:59:59.687Z,1.70
2023-03-11T13:02:57.163Z,2.30
2023-03-11T13:05:32.362Z,2.10
2023-03-11T13:10:42.352Z,2.22
2023-03-11T13:13:35.325Z,1.75
2023-03-11T13:16:14.891Z,1.88
2023-03-11T13:18:44.456Z,1.73
2023-03-11T13:21:32.634Z,2.03
2023-03-11T13:24:26.209Z,2.20
2023-03-11T13:26:59.757Z,2.05
2023-03-11T13:29:27.052Z,2.30
2023-03-11T13:32:26.377Z,2.72
2023-03-11T13:35:23.458Z,2.00
2023-03-11T13:38:02.429Z,2.92
2023-03-11T13:40:42.365Z,1.90
2023-03-11T13:43:16.953Z,1.83
2023-03-11T13:46:11.697Z,2.13
2023-03-11T13:48:42.269Z,1.80
2023-03-11T13:51:32.587Z,2.33
2023-03-11T13:54:04.819Z,1.95
2023-03-11T13:56:34.222Z,1.98
2023-03-11T13:59:24.680Z,2.33
2023-03-11T14:01:58.696Z,1.88
2023-03-11T14:04:32.524Z,1.90
2023-03-11T14:07:00.786Z,1.77
2023-03-11T14:09:28.916Z,2.10
2023-03-11T14:12:04.541Z,2.10
2023-03-11T14:14:59.133Z,1.75
2023-03-11T14:17:26.281Z,1.75
2023-03-11T14:20:32.045Z,1.90
2023-03-11T14:22:59.042Z,1.65
2023-03-11T14:25:28.621Z,1.75
2023-03-11T14:28:05.819Z,1.60
2023-03-11T14:30:34.698Z,1.88
2023-03-11T14:33:05.853Z,1.80
2023-03-11T14:35:34.320Z,1.83
2023-03-11T14:38:01.612Z,1.60
2023-03-11T14:40:33.924Z,1.60
2023-03-11T14:43:04.657Z,1.63
2023-03-11T14:45:37.731Z,1.98
2023-03-11T14:48:16.479Z,2.08
2023-03-11T14:50:49.458Z,1.50
2023-03-11T14:53:36.997Z,1.23
2023-03-11T14:56:13.655Z,1.40
2023-03-11T14:58:47.628Z,1.58
2023-03-11T15:01:23.451Z,2.05
2023-03-11T15:04:02.542Z,1.80
2023-03-11T15:06:30.916Z,1.58
2023-03-11T15:09:13.829Z,1.70
2023-03-11T15:11:55.197Z,1.83
2023-03-11T15:14:26.514Z,1.67
2023-03-11T15:16:55.352Z,1.98
2023-03-11T15:19:35.168Z,2.22
2023-03-11T15:22:20.442Z,1.67
2023-03-11T15:27:42.643Z,1.40
2023-03-11T15:30:22.205Z,1.58
2023-03-11T15:32:50.172Z,2.03
2023-03-11T15:35:21.342Z,1.27
2023-03-11T15:37:50.471Z,1.63
2023-03-11T15:40:43.899Z,2.17
2023-03-11T15:43:15.365Z,2.03
2023-03-11T15:45:43.397Z,1.80
2023-03-11T15:48:11.847Z,1.77
2023-03-11T15:50:53.232Z,1.35
2023-03-11T15:53:22.054Z,1.60
2023-03-11T15:55:49.258Z,1.85
2023-03-11T15:58:19.530Z,1.30
2023-03-11T16:00:54.413Z,1.60
2023-03-11T16:03:22.980Z,2.45
2023-03-11T16:05:50.537Z,2.03
2023-03-11T16:08:17.695Z,1.75
2023-03-11T16:10:44.926Z,1.73
2023-03-11T16:13:16.157Z,2.10
2023-03-11T16:15:44.110Z,1.88
2023-03-11T16:18:11.874Z,2.08
2023-03-11T16:20:52.162Z,1.77
2023-03-11T16:23:28.714Z,1.83
2023-03-11T16:26:00.115Z,1.60
2023-03-11T16:28:28.095Z,2.00
2023-03-11T16:30:56.504Z,1.90
2023-03-11T16:33:24.053Z,2.33
2023-03-11T16:35:51.098Z,1.92
2023-03-11T16:38:19.614Z,2.65
2023-03-11T16:40:59.059Z,2.35
2023-03-11T16:43:27.463Z,2.83
2023-03-11T16:45:54.774Z,2.03
2023-03-11T16:48:25.205Z,2.30
2023-03-11T16:50:52.434Z,1.95
2023-03-11T16:53:19.572Z,3.08
2023-03-11T16:55:47.499Z,2.15
2023-03-11T16:58:15.287Z,2.28
2023-03-11T17:01:01.617Z,2.00
2023-03-11T17:03:34.472Z,2.50
2023-03-11T17:06:07.987Z,1.90
2023-03-11T17:08:35.266Z,2.50
2023-03-11T17:11:02.188Z,2.67
2023-03-11T17:13:29.062Z,3.80
2023-03-11T17:16:00.733Z,4.32
2023-03-11T17:18:28.233Z,4.07
2023-03-11T17:20:55.177Z,3.63
2023-03-11T17:23:22.582Z,6.60
2023-03-11T17:25:49.648Z,7.70
2023-03-11T17:28:16.967Z,8.18
2023-03-11T17:30:45.168Z,7.80
2023-03-11T17:33:12.432Z,5.00
2023-03-11T17:35:41.021Z,5.15
2023-03-11T17:38:08.260Z,4.07
2023-03-11T17:40:35.472Z,3.40
2023-03-11T17:43:02.619Z,3.38
2023-03-11T17:45:30.602Z,3.03
2023-03-11T17:47:57.843Z,3.53
2023-03-11T17:50:26.542Z,3.40
2023-03-11T17:52:53.801Z,3.63
2023-03-11T17:55:21.094Z,4.75
2023-03-11T17:57:48.049Z,5.05
2023-03-11T18:00:15.480Z,4.55
2023-03-11T18:02:42.854Z,4.85
2023-03-11T18:05:10.016Z,5.13
2023-03-11T18:07:39.310Z,5.57
2023-03-11T18:10:07.957Z,5.07
2023-03-11T18:12:35.348Z,4.63
2023-03-11T18:15:06.225Z,4.72
2023-03-11T18:17:35.649Z,6.28
2023-03-11T18:20:02.974Z,6.45
2023-03-11T18:22:30.335Z,4.82
2023-03-11T18:24:57.886Z,3.83
2023-03-11T18:27:25.129Z,3.05
2023-03-11T18:29:52.548Z,3.22
2023-03-11T18:32:21.051Z,2.97
2023-03-11T18:34:51.570Z,3.60
2023-03-11T18:37:18.977Z,3.65
2023-03-11T18:39:46.214Z,3.78
2023-03-11T18:42:14.287Z,4.78
2023-03-11T18:44:42.345Z,4.05
2023-03-11T18:47:09.611Z,4.57
2023-03-11T18:49:36.995Z,5.07
2023-03-11T18:52:04.336Z,4.50
2023-03-11T18:54:31.860Z,5.30
2023-03-11T18:56:58.871Z,5.65
2023-03-11T18:59:28.003Z,6.35
2023-03-11T19:01:55.679Z,6.57
2023-03-11T19:04:23.001Z,6.10
2023-03-11T19:06:50.581Z,5.90
2023-03-11T19:09:18.573Z,5.43
2023-03-11T19:11:45.898Z,6.45
2023-03-11T19:14:13.528Z,7.70
2023-03-11T19:16:40.886Z,6.00
2023-03-11T19:19:09.533Z,6.57
2023-03-11T19:21:38.499Z,6.80
2023-03-11T19:24:06.198Z,8.27
2023-03-11T19:26:44.283Z,10.52
2023-03-11T19:29:13.855Z,8.18
2023-03-11T19:31:41.313Z,7.70
2023-03-11T19:34:08.635Z,7.72
2023-03-11T19:36:35.975Z,6.72
2023-03-11T19:39:03.795Z,6.85
2023-03-11T19:41:30.882Z,6.40
2023-03-11T19:43:58.003Z,6.07
2023-03-11T19:46:25.335Z,5.70
2023-03-11T19:48:57.018Z,5.60
2023-03-11T19:51:26.657Z,5.28
2023-03-11T19:53:55.658Z,5.68
2023-03-11T19:56:22.832Z,5.97
2023-03-11T19:58:50.112Z,6.38
2023-03-11T20:01:18.655Z,5.40
2023-03-11T20:03:46.472Z,5.65
2023-03-11T20:06:16.800Z,7.63
2023-03-11T20:08:44.593Z,7.63
2023-03-11T20:11:12.090Z,8.10
2023-03-11T20:13:41.618Z,7.65
2023-03-11T20:16:12.014Z,6.97
2023-03-11T20:18:39.862Z,7.07
2023-03-11T20:21:14.271Z,6.00
2023-03-11T20:23:41.929Z,6.75
2023-03-11T20:26:14.625Z,6.45
2023-03-11T20:28:41.925Z,5.43
2023-03-11T20:31:18.322Z,5.18
2023-03-11T20:33:46.378Z,4.85
2023-03-11T20:36:23.402Z,4.60
2023-03-11T20:38:52.913Z,4.55
2023-03-11T20:41:23.443Z,4.90
2023-03-11T20:43:55.842Z,4.78
2023-03-11T20:46:23.278Z,5.25
2023-03-11T20:48:50.683Z,6.00
2023-03-11T20:51:20.603Z,6.05
2023-03-11T20:53:49.166Z,6.78
2023-03-11T20:56:20.715Z,6.07
2023-03-11T20:58:51.278Z,5.57
2023-03-11T21:01:19.999Z,5.57
2023-03-11T21:03:47.994Z,5.50
2023-03-11T21:06:22.108Z,5.82
2023-03-11T21:08:50.239Z,3.90
2023-03-11T21:11:18.249Z,5.40
2023-03-11T21:13:45.465Z,6.13
2023-03-11T21:16:13.006Z,6.45
2023-03-11T21:18:41.530Z,6.82
2023-03-11T21:21:10.874Z,7.32
2023-03-11T21:23:42.369Z,7.78
2023-03-11T21:26:10.643Z,6.85
2023-03-11T21:28:40.137Z,7.10
2023-03-11T21:31:13.693Z,6.15
2023-03-11T21:33:41.229Z,6.15
2023-03-11T21:36:10.435Z,5.25
2023-03-11T21:38:39.943Z,4.57
2023-03-11T21:41:27.474Z,4.80
2023-03-11T21:43:56.261Z,5.70
2023-03-11T21:46:29.864Z,5.97
2023-03-11T21:48:57.874Z,6.03
2023-03-11T21:51:25.871Z,6.28
2023-03-11T21:53:53.684Z,6.35
2023-03-11T21:56:21.017Z,6.53
2023-03-11T21:58:49.988Z,6.35
2023-03-11T22:01:17.301Z,8.55
2023-03-11T22:03:44.631Z,7.03
2023-03-11T22:06:13.284Z,6.13
2023-03-11T22:08:40.631Z,5.82
2023-03-11T22:11:09.937Z,5.13
2023-03-11T22:13:36.932Z,5.32
2023-03-11T22:16:07.898Z,7.30
2023-03-11T22:18:35.713Z,6.65
2023-03-11T22:21:02.953Z,6.20
2023-03-11T22:23:30.532Z,6.28
2023-03-11T22:25:57.592Z,6.30
2023-03-11T22:28:24.845Z,5.45
2023-03-11T22:30:52.087Z,5.50
2023-03-11T22:33:19.298Z,5.80
2023-03-11T22:36:05.114Z,6.15
2023-03-11T22:38:32.943Z,6.07
2023-03-11T22:41:03.467Z,4.43
2023-03-11T22:43:30.716Z,5.13
2023-03-11T22:45:58.458Z,5.30
2023-03-11T22:48:26.328Z,5.90
2023-03-11T22:50:53.520Z,6.43
2023-03-11T22:53:23.231Z,6.10
2023-03-11T22:55:50.307Z,6.10
2023-03-11T22:58:17.597Z,5.72
2023-03-11T23:00:44.647Z,5.97
2023-03-11T23:03:12.626Z,5.88
2023-03-11T23:05:42.258Z,6.28
2023-03-11T23:08:11.189Z,7.07
2023-03-11T23:10:41.096Z,6.28
2023-03-11T23:13:08.216Z,6.75
2023-03-11T23:15:35.203Z,6.70
2023-03-11T23:18:02.148Z,8.18
2023-03-11T23:20:29.075Z,9.38
2023-03-11T23:22:56.059Z,9.15
2023-03-11T23:25:22.992Z,9.30
2023-03-11T23:27:50.163Z,10.10
2023-03-11T23:30:17.603Z,8.85
2023-03-11T23:32:44.970Z,9.48
2023-03-11T23:35:12.593Z,10.25
2023-03-11T23:37:40.245Z,10.15
2023-03-11T23:40:09.568Z,10.63
2023-03-11T23:42:36.578Z,9.50
2023-03-11T23:45:03.737Z,9.70
2023-03-11T23:47:31.111Z,10.02
2023-03-11T23:49:58.080Z,10.20
2023-03-11T23:52:25.389Z,9.15
2023-03-11T23:54:52.369Z,9.00
2023-03-11T23:57:19.167Z,8.07
2023-03-11T23:59:46.004Z,8.30
